Time;durP1;ratioP1;P1;durP2;ratioP2;P2;SDS_P1;SDS_P2;PMS_P1;PMS_P2;Temp;Humidity;BMP_temperature;BMP_pressure;BME280_temperature;BME280_humidity;BME280_pressure;Samples;Min_cycle;Max_cycle;Signal;HPM_P1;HPM_P2
2022/10/06 00:00:48;;;;;;;4.68;1.23;;;13.80;99.90;;;;;;5035047;28;20033;-63
2022/10/06 00:03:15;;;;;;;4.03;1.00;;;13.80;99.90;;;;;;5020015;28;20064;-63
2022/10/06 00:05:41;;;;;;;5.55;0.80;;;13.90;99.90;;;;;;5022661;28;20084;-62
2022/10/06 00:08:07;;;;;;;5.18;0.88;;;13.60;99.90;;;;;;5015263;28;20511;-63
2022/10/06 00:10:32;;;;;;;5.07;1.20;;;13.60;99.90;;;;;;5026167;28;20480;-62
2022/10/06 00:12:58;;;;;;;6.30;1.20;;;13.70;99.90;;;;;;5033990;28;20047;-63
2022/10/06 00:15:27;;;;;;;9.50;1.48;;;13.70;99.90;;;;;;5034997;28;20064;-63
2022/10/06 00:17:55;;;;;;;6.50;1.67;;;13.70;99.90;;;;;;5034030;28;20395;-63
2022/10/06 00:20:20;;;;;;;5.40;1.17;;;13.70;99.90;;;;;;5035064;28;20038;-62
2022/10/06 00:22:47;;;;;;;6.60;1.15;;;13.70;99.90;;;;;;5025523;28;20052;-62
2022/10/06 00:25:16;;;;;;;6.13;1.30;;;13.70;99.90;;;;;;5029592;28;20033;-62
2022/10/06 00:27:45;;;;;;;10.45;1.38;;;13.60;99.90;;;;;;5033616;28;20038;-63
2022/10/06 00:30:13;;;;;;;8.07;1.33;;;13.70;99.90;;;;;;5033276;28;20045;-63
2022/10/06 00:32:39;;;;;;;17.05;2.13;;;13.60;99.90;;;;;;5021782;28;20041;-61
2022/10/06 00:35:08;;;;;;;7.95;1.50;;;13.50;99.90;;;;;;5033714;28;20408;-63
2022/10/06 00:37:36;;;;;;;6.13;1.08;;;13.60;99.90;;;;;;5015604;28;20409;-62
2022/10/06 00:40:08;;;;;;;9.55;1.27;;;13.50;99.90;;;;;;5015191;28;20034;-62
2022/10/06 00:42:56;;;;;;;7.80;1.17;;;13.50;99.90;;;;;;5019069;28;20069;-63
2022/10/06 00:45:25;;;;;;;7.22;1.33;;;13.60;99.90;;;;;;5033319;28;20147;-62
2022/10/06 00:47:51;;;;;;;14.80;2.05;;;13.70;99.90;;;;;;5016710;28;20044;-63
2022/10/06 00:50:17;;;;;;;7.60;1.55;;;13.50;99.90;;;;;;5022674;28;20551;-62
2022/10/06 00:52:43;;;;;;;9.25;2.00;;;13.50;99.90;;;;;;5014461;28;20420;-63
2022/10/06 00:55:10;;;;;;;8.93;1.60;;;13.40;99.90;;;;;;5013350;28;20041;-63
2022/10/06 00:57:38;;;;;;;11.80;1.45;;;13.60;99.90;;;;;;5014798;28;20053;-62
2022/10/06 01:00:05;;;;;;;7.82;1.60;;;13.40;99.90;;;;;;5013280;28;20529;-63
2022/10/06 01:02:42;;;;;;;11.48;2.00;;;13.40;99.90;;;;;;5014971;28;20132;-63
2022/10/06 01:05:14;;;;;;;9.18;1.67;;;13.40;99.90;;;;;;5034386;28;20076;-62
2022/10/06 01:07:40;;;;;;;9.07;1.58;;;13.40;99.90;;;;;;5033344;28;20041;-63
2022/10/06 01:10:06;;;;;;;7.90;1.30;;;13.30;99.90;;;;;;5014427;28;20036;-62
2022/10/06 01:12:33;;;;;;;7.35;1.40;;;13.30;99.90;;;;;;5014274;28;20508;-62
2022/10/06 01:14:59;;;;;;;8.57;1.20;;;13.40;99.90;;;;;;5013887;28;20062;-63
2022/10/06 01:17:38;;;;;;;5.72;1.38;;;13.10;99.90;;;;;;5013064;28;20045;-62
2022/10/06 01:20:08;;;;;;;14.27;1.40;;;13.10;99.90;;;;;;5013889;28;20038;-63
2022/10/06 01:22:50;;;;;;;8.93;1.65;;;13.10;99.90;;;;;;5025042;28;20045;-62
2022/10/06 01:25:17;;;;;;;7.53;1.15;;;13.10;99.90;;;;;;5029575;28;20045;-62
2022/10/06 01:27:50;;;;;;;8.52;2.30;;;13.10;99.90;;;;;;5032799;28;20045;-62
2022/10/06 01:30:38;;;;;;;10.55;1.73;;;13.20;99.90;;;;;;5032439;28;20506;-63
2022/10/06 01:33:03;;;;;;;8.10;1.83;;;13.30;99.90;;;;;;5032932;28;20513;-63
2022/10/06 01:35:29;;;;;;;13.90;2.00;;;13.10;99.90;;;;;;5030245;28;20037;-62
2022/10/06 01:37:57;;;;;;;9.35;1.55;;;13.00;99.90;;;;;;5021515;28;20427;-63
2022/10/06 01:40:24;;;;;;;10.52;1.75;;;13.00;99.90;;;;;;5033048;28;20197;-63
2022/10/06 01:42:49;;;;;;;12.20;1.77;;;13.10;99.90;;;;;;5020181;28;20037;-63
2022/10/06 01:45:15;;;;;;;8.23;2.20;;;13.00;99.90;;;;;;5032083;28;20502;-62
2022/10/06 01:47:41;;;;;;;13.25;1.52;;;13.00;99.90;;;;;;5019526;28;20458;-62
2022/10/06 01:50:07;;;;;;;15.68;1.98;;;12.90;99.90;;;;;;5033497;28;20485;-62
2022/10/06 01:52:34;;;;;;;10.43;2.30;;;12.90;99.90;;;;;;5032072;28;20033;-63
2022/10/06 01:55:00;;;;;;;11.40;2.33;;;13.00;99.90;;;;;;5024749;28;20045;-62
2022/10/06 01:57:25;;;;;;;9.70;1.45;;;12.80;99.90;;;;;;5014341;28;20037;-62
2022/10/06 01:59:51;;;;;;;7.40;1.67;;;12.80;99.90;;;;;;5033226;28;20495;-63
2022/10/06 02:02:16;;;;;;;7.30;1.42;;;12.70;99.90;;;;;;5020904;28;20041;-62
2022/10/06 02:04:42;;;;;;;9.00;1.73;;;12.50;99.90;;;;;;5017774;28;20048;-63
2022/10/06 02:07:08;;;;;;;7.35;1.77;;;12.60;99.90;;;;;;5031801;28;20056;-63
2022/10/06 02:09:33;;;;;;;9.25;1.67;;;12.70;99.90;;;;;;5016836;28;20400;-63
2022/10/06 02:11:59;;;;;;;9.75;1.42;;;12.50;99.90;;;;;;5021674;28;20038;-62
2022/10/06 02:14:25;;;;;;;9.20;1.67;;;12.50;99.90;;;;;;5032770;28;20049;-63
2022/10/06 02:16:50;;;;;;;10.23;1.60;;;12.70;99.90;;;;;;5032842;28;20049;-62
2022/10/06 02:19:16;;;;;;;8.55;2.30;;;12.50;99.90;;;;;;5019172;28;20054;-62
2022/10/06 02:21:42;;;;;;;5.07;1.55;;;12.40;99.90;;;;;;5030827;28;20407;-62
2022/10/06 02:24:07;;;;;;;6.63;1.85;;;12.30;99.90;;;;;;5013026;28;20046;-62
2022/10/06 02:26:33;;;;;;;8.02;1.30;;;12.30;99.90;;;;;;5025485;28;20072;-63
2022/10/06 02:28:58;;;;;;;12.60;1.63;;;12.40;99.90;;;;;;5027097;28;20478;-61
2022/10/06 02:31:24;;;;;;;4.45;1.08;;;12.20;99.90;;;;;;5013072;28;20030;-63
2022/10/06 02:33:50;;;;;;;11.35;1.35;;;12.30;99.90;;;;;;5022022;28;20475;-62
2022/10/06 02:36:16;;;;;;;9.20;2.30;;;12.30;99.90;;;;;;5031501;28;20084;-62
2022/10/06 02:38:43;;;;;;;10.45;1.77;;;12.40;99.90;;;;;;5032525;28;20029;-63
2022/10/06 02:41:09;;;;;;;8.98;1.77;;;12.20;99.90;;;;;;5031393;28;20037;-63
2022/10/06 02:43:36;;;;;;;7.70;1.60;;;12.30;99.90;;;;;;5032863;28;20132;-62
2022/10/06 02:46:04;;;;;;;5.00;1.15;;;12.40;99.90;;;;;;5027474;28;20091;-62
2022/10/06 02:48:30;;;;;;;7.28;1.67;;;12.30;99.90;;;;;;5033488;28;20068;-62
2022/10/06 02:51:00;;;;;;;8.95;1.63;;;12.20;99.90;;;;;;5036736;28;20037;-63
2022/10/06 02:53:27;;;;;;;10.40;3.00;;;12.30;99.90;;;;;;5036824;28;20038;-62
2022/10/06 02:55:59;;;;;;;10.70;1.63;;;12.30;99.90;;;;;;5036871;28;20053;-62
2022/10/06 02:58:28;;;;;;;6.20;1.13;;;12.50;99.90;;;;;;5035298;28;20400;-62
2022/10/06 03:00:53;;;;;;;17.10;2.15;;;12.10;99.90;;;;;;5035397;28;20102;-63
2022/10/06 03:03:19;;;;;;;7.00;1.85;;;12.30;99.90;;;;;;5036667;28;20462;-63
2022/10/06 03:05:44;;;;;;;11.32;2.20;;;12.20;99.90;;;;;;5036291;28;20535;-63
2022/10/06 03:08:10;;;;;;;12.20;3.83;;;;;;;;;;5036430;28;20484;-62
2022/10/06 03:10:36;;;;;;;10.80;1.88;;;12.10;99.90;;;;;;5035247;28;20479;-62
2022/10/06 03:13:01;;;;;;;7.57;1.45;;;11.90;99.90;;;;;;5036546;28;20112;-62
2022/10/06 03:15:27;;;;;;;9.82;1.98;;;12.00;99.90;;;;;;5034744;28;20135;-62
2022/10/06 03:17:53;;;;;;;8.85;1.98;;;12.00;99.90;;;;;;5036296;28;20471;-62
2022/10/06 03:20:19;;;;;;;10.13;1.70;;;12.00;99.90;;;;;;5036140;28;20069;-63
2022/10/06 03:22:44;;;;;;;7.15;1.40;;;12.00;99.90;;;;;;5036353;28;20044;-62
2022/10/06 03:25:10;;;;;;;7.38;1.60;;;11.90;99.90;;;;;;5034972;28;20419;-62
2022/10/06 03:27:35;;;;;;;14.65;2.10;;;11.90;99.90;;;;;;5022511;28;20493;-62
2022/10/06 03:30:02;;;;;;;10.68;1.90;;;11.90;99.90;;;;;;5036071;28;20041;-62
2022/10/06 03:32:27;;;;;;;5.85;1.35;;;12.00;99.90;;;;;;5036194;28;20037;-62
2022/10/06 03:34:53;;;;;;;9.25;1.50;;;11.80;99.90;;;;;;5035921;28;20056;-62
2022/10/06 03:37:19;;;;;;;12.48;1.60;;;11.80;99.90;;;;;;5034861;28;20049;-63
2022/10/06 03:39:44;;;;;;;11.32;1.95;;;11.70;99.90;;;;;;5036145;28;20072;-62
2022/10/06 03:42:10;;;;;;;7.25;1.45;;;;;;;;;;5034481;28;20045;-63
2022/10/06 03:44:36;;;;;;;10.75;2.00;;;11.80;99.90;;;;;;5014555;28;20080;-63
2022/10/06 03:47:01;;;;;;;5.20;1.17;;;11.70;99.90;;;;;;5035796;28;20068;-62
2022/10/06 03:49:27;;;;;;;7.68;1.90;;;11.80;99.90;;;;;;5034661;28;20038;-62
2022/10/06 03:51:53;;;;;;;7.78;1.50;;;11.70;99.90;;;;;;5034717;28;20251;-62
2022/10/06 03:54:18;;;;;;;12.45;2.85;;;11.80;99.90;;;;;;5035792;28;20096;-62
2022/10/06 03:56:44;;;;;;;13.93;2.15;;;11.70;99.90;;;;;;5035773;28;20045;-62
2022/10/06 03:59:12;;;;;;;7.35;2.33;;;11.60;99.90;;;;;;5034352;28;20077;-63
2022/10/06 04:01:43;;;;;;;12.50;2.10;;;11.70;99.90;;;;;;5035418;28;20373;-62
2022/10/06 04:04:10;;;;;;;8.50;1.63;;;11.80;99.90;;;;;;5035221;28;20575;-63
2022/10/06 04:06:38;;;;;;;6.97;1.33;;;11.80;99.90;;;;;;5035192;28;20033;-63
2022/10/06 04:09:06;;;;;;;9.63;1.33;;;11.70;99.90;;;;;;5035590;28;20044;-62
2022/10/06 04:11:33;;;;;;;12.40;1.58;;;11.60;99.90;;;;;;5035408;28;20091;-62
2022/10/06 04:14:02;;;;;;;11.45;1.45;;;11.60;99.90;;;;;;5035288;28;20124;-62
2022/10/06 04:16:33;;;;;;;6.63;1.30;;;11.60;99.90;;;;;;5035059;28;20089;-62
2022/10/06 04:19:02;;;;;;;9.00;1.65;;;11.70;99.90;;;;;;5035065;28;20418;-61
2022/10/06 04:21:29;;;;;;;7.20;1.75;;;11.60;99.90;;;;;;5035042;28;20395;-63
2022/10/06 04:23:56;;;;;;;6.25;1.30;;;11.70;99.90;;;;;;5033977;28;20030;-62
2022/10/06 04:26:24;;;;;;;5.93;1.65;;;11.50;99.90;;;;;;5035222;28;20144;-62
2022/10/06 04:28:50;;;;;;;11.43;2.28;;;11.50;99.90;;;;;;5034889;28;20120;-62
2022/10/06 04:31:18;;;;;;;8.10;1.50;;;11.60;99.90;;;;;;5033669;28;20041;-63
2022/10/06 04:33:45;;;;;;;13.45;2.15;;;11.50;99.90;;;;;;5033367;28;20120;-62
2022/10/06 04:36:29;;;;;;;13.02;1.55;;;11.60;99.90;;;;;;5035263;28;20399;-62
2022/10/06 04:38:57;;;;;;;12.75;2.10;;;11.40;99.90;;;;;;5033784;28;20034;-62
2022/10/06 04:41:30;;;;;;;9.45;1.70;;;11.50;99.90;;;;;;5034664;28;20053;-62
2022/10/06 04:43:57;;;;;;;11.63;2.30;;;11.50;99.90;;;;;;5033103;28;20072;-63
2022/10/06 04:46:24;;;;;;;15.00;2.03;;;11.40;99.90;;;;;;5033557;28;20037;-63
2022/10/06 04:48:53;;;;;;;7.05;1.98;;;11.50;99.90;;;;;;5033470;28;20163;-62
2022/10/06 04:51:21;;;;;;;12.10;2.33;;;11.40;99.90;;;;;;5034490;28;20082;-62
2022/10/06 04:53:47;;;;;;;8.80;1.83;;;11.40;99.90;;;;;;5034453;28;20142;-62
2022/10/06 04:56:16;;;;;;;8.10;1.55;;;11.50;99.90;;;;;;5034446;28;20492;-63
2022/10/06 04:58:44;;;;;;;17.85;2.55;;;11.40;99.90;;;;;;5034290;28;20464;-63
2022/10/06 05:01:18;;;;;;;13.73;2.47;;;11.50;99.90;;;;;;5034542;28;20042;-62
2022/10/06 05:03:45;;;;;;;5.28;1.52;;;11.50;99.90;;;;;;5033006;28;20037;-63
2022/10/06 05:06:13;;;;;;;9.52;2.20;;;11.30;99.90;;;;;;5034284;28;20041;-62
2022/10/06 05:08:40;;;;;;;11.07;1.70;;;11.40;99.90;;;;;;5033024;28;20492;-62
2022/10/06 05:11:08;;;;;;;10.23;2.15;;;11.40;99.90;;;;;;5033529;28;20037;-64
2022/10/06 05:13:36;;;;;;;12.32;1.75;;;11.30;99.90;;;;;;5034219;28;20395;-62
2022/10/06 05:16:03;;;;;;;9.50;1.50;;;11.40;99.90;;;;;;5034092;28;20064;-62
2022/10/06 05:18:29;;;;;;;10.40;2.15;;;11.50;99.90;;;;;;5032588;28;20479;-62
2022/10/06 05:20:59;;;;;;;13.25;1.85;;;11.40;99.90;;;;;;5032868;28;20534;-62
2022/10/06 05:23:26;;;;;;;10.23;2.10;;;11.30;99.90;;;;;;5033815;28;20504;-62
2022/10/06 05:25:54;;;;;;;11.35;1.90;;;11.40;99.90;;;;;;5032483;28;20080;-62
2022/10/06 05:28:20;;;;;;;10.88;1.85;;;11.40;99.90;;;;;;5033775;28;20060;-62
2022/10/06 05:30:58;;;;;;;12.25;1.77;;;11.40;99.90;;;;;;5034117;28;20430;-62
2022/10/06 05:33:25;;;;;;;10.88;2.90;;;11.40;99.90;;;;;;5032383;28;20045;-62
2022/10/06 05:35:59;;;;;;;13.27;1.67;;;11.30;99.90;;;;;;5032567;28;20403;-62
2022/10/06 05:38:28;;;;;;;10.95;2.05;;;11.50;99.90;;;;;;5033631;28;20041;-64
2022/10/06 05:41:17;;;;;;;12.52;2.60;;;11.40;99.90;;;;;;5033824;28;20041;-62
2022/10/06 05:43:43;;;;;;;10.50;2.53;;;11.40;99.90;;;;;;5033378;28;20033;-62
2022/10/06 05:46:18;;;;;;;12.10;1.80;;;11.50;99.90;;;;;;5032414;28;20578;-62
2022/10/06 05:48:45;;;;;;;;;;;11.40;99.90;;;;;;5032283;28;20037;-63
2022/10/06 05:51:11;;;;;;;7.65;1.98;;;11.30;99.90;;;;;;5033124;28;19921;-62
2022/10/06 05:53:36;;;;;;;9.45;1.73;;;11.40;99.90;;;;;;5033458;28;20045;-62
2022/10/06 05:56:13;;;;;;;13.57;2.30;;;11.50;99.90;;;;;;5033488;28;20067;-62
2022/10/06 05:58:40;;;;;;;11.98;2.03;;;11.40;99.90;;;;;;5021316;28;20372;-62
2022/10/06 06:01:10;;;;;;;11.00;2.17;;;11.30;99.90;;;;;;5032835;28;20041;-63
2022/10/06 06:03:37;;;;;;;11.20;1.80;;;11.40;99.90;;;;;;5031266;28;20154;-63
2022/10/06 06:06:04;;;;;;;14.18;3.28;;;11.20;99.90;;;;;;5030889;28;20045;-62
2022/10/06 06:08:29;;;;;;;18.83;3.45;;;11.40;99.90;;;;;;5030601;28;20484;-63
2022/10/06 06:11:03;;;;;;;14.55;2.20;;;11.40;99.90;;;;;;5031793;28;20083;-64
2022/10/06 06:13:29;;;;;;;12.02;2.03;;;;;;;;;;5027026;28;20045;-64
2022/10/06 06:16:02;;;;;;;10.85;1.70;;;11.50;99.90;;;;;;5030697;28;20108;-64
2022/10/06 06:18:32;;;;;;;11.13;2.22;;;11.40;99.90;;;;;;5031985;28;20072;-63
2022/10/06 06:21:05;;;;;;;13.13;2.40;;;11.50;99.90;;;;;;5032289;28;20488;-64
2022/10/06 06:23:48;;;;;;;7.70;1.70;;;11.70;99.90;;;;;;5031809;28;20075;-63
2022/10/06 06:26:23;;;;;;;10.27;2.65;;;11.60;99.90;;;;;;5031005;28;20041;-63
2022/10/06 06:28:50;;;;;;;14.50;2.05;;;11.50;99.90;;;;;;5032472;28;20061;-64
2022/10/06 06:31:18;;;;;;;9.95;2.20;;;11.70;99.90;;;;;;5032400;28;20079;-64
2022/10/06 06:33:44;;;;;;;7.22;2.38;;;11.60;99.90;;;;;;5032105;28;20052;-64
2022/10/06 06:36:21;;;;;;;10.95;2.28;;;11.70;99.90;;;;;;5032051;28;20403;-63
2022/10/06 06:38:50;;;;;;;14.05;2.10;;;11.90;99.90;;;;;;5030844;28;20067;-64
2022/10/06 06:41:25;;;;;;;13.80;2.38;;;11.70;99.90;;;;;;5031385;28;20045;-65
2022/10/06 06:43:54;;;;;;;9.93;1.92;;;11.80;99.90;;;;;;5021244;28;20091;-64
2022/10/06 06:46:26;;;;;;;10.75;1.73;;;11.80;99.90;;;;;;5031034;28;20083;-65
2022/10/06 06:48:55;;;;;;;11.57;2.05;;;12.10;99.90;;;;;;5014267;28;20468;-64
2022/10/06 06:51:24;;;;;;;8.98;2.00;;;12.10;99.90;;;;;;5031637;28;20034;-65
2022/10/06 06:53:51;;;;;;;12.70;2.20;;;12.10;99.90;;;;;;5030707;28;20045;-65
2022/10/06 06:56:18;;;;;;;15.30;2.83;;;12.20;99.90;;;;;;5032082;28;20083;-64
2022/10/06 06:58:47;;;;;;;10.02;2.42;;;12.10;99.90;;;;;;5032016;28;20041;-64
2022/10/06 07:01:16;;;;;;;15.82;2.20;;;12.20;99.90;;;;;;5011052;28;20369;-64
2022/10/06 07:03:44;;;;;;;10.27;2.28;;;12.30;99.90;;;;;;5031803;28;20474;-63
2022/10/06 07:06:12;;;;;;;7.75;1.70;;;12.50;99.90;;;;;;5031885;28;20065;-64
2022/10/06 07:08:42;;;;;;;18.15;2.30;;;12.40;99.90;;;;;;5031842;28;20048;-64
2022/10/06 07:11:15;;;;;;;13.90;2.45;;;12.60;99.90;;;;;;5030754;28;20084;-64
2022/10/06 07:13:41;;;;;;;13.50;2.33;;;12.70;99.90;;;;;;5027678;28;20034;-65
2022/10/06 07:27:11;;;;;;;12.77;2.10;;;13.10;99.90;;;;;;5030362;28;20049;-64
2022/10/06 07:29:37;;;;;;;11.75;2.22;;;;;;;;;;5030370;28;20038;-64
2022/10/06 07:32:03;;;;;;;8.90;2.13;;;;;;;;;;5030538;28;20045;-65
2022/10/06 07:34:29;;;;;;;12.68;1.80;;;13.30;99.90;;;;;;5032555;28;20073;-65
2022/10/06 07:36:56;;;;;;;11.48;2.42;;;13.60;99.90;;;;;;5035353;28;20041;-64
2022/10/06 07:39:22;;;;;;;12.02;2.13;;;13.60;99.90;;;;;;5034063;28;20512;-65
2022/10/06 07:41:47;;;;;;;10.10;1.70;;;13.60;99.90;;;;;;5021551;28;20053;-65
2022/10/06 07:44:13;;;;;;;15.32;2.30;;;14.00;99.90;;;;;;5030890;28;20047;-65
2022/10/06 07:46:38;;;;;;;7.35;2.10;;;14.10;99.90;;;;;;5035447;28;20045;-65
2022/10/06 07:49:04;;;;;;;12.02;2.00;;;14.00;99.90;;;;;;5035074;28;20045;-65
2022/10/06 07:51:30;;;;;;;10.73;1.67;;;14.10;99.90;;;;;;5035163;28;20060;-65
2022/10/06 07:53:55;;;;;;;11.95;2.08;;;14.30;99.90;;;;;;5035594;28;20077;-65
2022/10/06 07:56:21;;;;;;;13.80;2.38;;;14.10;99.90;;;;;;5033853;28;20404;-65
2022/10/06 07:58:48;;;;;;;16.58;1.85;;;14.10;99.90;;;;;;5030565;28;20041;-64
2022/10/06 08:01:16;;;;;;;10.40;2.20;;;14.50;99.90;;;;;;5031580;28;20380;-64
2022/10/06 08:03:45;;;;;;;13.13;2.85;;;14.30;99.90;;;;;;5034969;28;20439;-65
2022/10/06 08:06:13;;;;;;;11.60;3.03;;;14.60;99.90;;;;;;5021416;28;20048;-65
2022/10/06 08:08:39;;;;;;;16.65;3.60;;;14.70;99.90;;;;;;5034556;28;20527;-64
2022/10/06 08:11:06;;;;;;;15.20;5.57;;;14.80;99.90;;;;;;5034254;28;20128;-65
2022/10/06 08:13:35;;;;;;;13.25;4.43;;;14.70;99.90;;;;;;5033153;28;20130;-65
2022/10/06 08:16:10;;;;;;;21.88;5.18;;;15.00;99.90;;;;;;5032431;28;20104;-64
2022/10/06 08:18:36;;;;;;;18.98;5.97;;;;;;;;;;5029690;28;20060;-65
2022/10/06 08:21:29;;;;;;;17.10;6.15;;;15.60;99.90;;;;;;5024504;28;20042;-64
2022/10/06 08:23:56;;;;;;;21.73;6.90;;;16.10;99.90;;;;;;5030373;28;20037;-65
2022/10/06 08:26:23;;;;;;;14.70;6.10;;;16.50;99.90;;;;;;5027718;28;20029;-64
2022/10/06 08:28:51;;;;;;;17.17;5.63;;;16.90;99.90;;;;;;5020592;28;20041;-64
2022/10/06 08:31:19;;;;;;;22.88;7.25;;;17.00;99.90;;;;;;5019943;28;20073;-64
2022/10/06 08:33:46;;;;;;;14.35;4.82;;;17.60;99.90;;;;;;5015517;28;20451;-63
2022/10/06 08:36:17;;;;;;;19.00;4.57;;;17.70;99.90;;;;;;5015130;28;20045;-65
2022/10/06 08:38:46;;;;;;;9.98;2.53;;;17.70;99.90;;;;;;5013173;28;20452;-65
2022/10/06 08:41:28;;;;;;;13.55;1.83;;;18.10;99.90;;;;;;5013847;28;20112;-64
2022/10/06 08:44:03;;;;;;;8.30;1.27;;;18.10;99.90;;;;;;5024106;28;20501;-64
2022/10/06 08:46:36;;;;;;;7.03;1.95;;;18.00;99.90;;;;;;5028291;28;20120;-64
2022/10/06 08:49:02;;;;;;;8.65;1.70;;;18.50;99.90;;;;;;5032080;28;20045;-65
2022/10/06 08:51:52;;;;;;;11.85;2.13;;;18.50;99.90;;;;;;5033574;28;20073;-64
2022/10/06 08:54:46;;;;;;;9.30;1.55;;;18.60;99.90;;;;;;5032904;28;20073;-66
2022/10/06 08:57:20;;;;;;;7.82;1.27;;;18.90;99.90;;;;;;5033035;28;20037;-65
2022/10/06 08:59:48;;;;;;;9.75;1.38;;;19.70;99.90;;;;;;5030970;28;20041;-64
2022/10/06 09:02:40;;;;;;;7.10;1.17;;;20.30;99.90;;;;;;5032436;28;20053;-65
2022/10/06 09:05:10;;;;;;;8.32;1.25;;;20.30;99.90;;;;;;5033179;28;20136;-65
2022/10/06 09:08:15;;;;;;;11.68;1.05;;;20.60;99.90;;;;;;5033869;28;20132;-65
2022/10/06 09:11:02;;;;;;;8.52;1.63;;;20.40;99.90;;;;;;4972691;28;20064;-65
2022/10/06 09:13:37;;;;;;;9.23;1.27;;;20.50;99.90;;;;;;5031709;28;20415;-65
2022/10/06 09:16:06;;;;;;;6.60;0.98;;;21.20;99.90;;;;;;5031583;28;20064;-67
2022/10/06 09:18:34;;;;;;;5.00;1.00;;;21.30;99.90;;;;;;5033064;28;20041;-67
2022/10/06 09:21:02;;;;;;;10.38;1.00;;;22.20;99.90;;;;;;5031507;28;20037;-67
2022/10/06 09:23:48;;;;;;;10.93;1.13;;;23.20;99.90;;;;;;5032640;28;20510;-66
2022/10/06 09:26:22;;;;;;;7.20;1.67;;;25.00;99.90;;;;;;5014891;28;20037;-66
2022/10/06 09:28:49;;;;;;;9.40;1.40;;;28.00;99.90;;;;;;5032691;28;20061;-65
2022/10/06 09:31:30;;;;;;;7.88;1.52;;;28.70;99.90;;;;;;5031266;28;20047;-66
2022/10/06 09:34:29;;;;;;;5.70;0.82;;;28.10;99.90;;;;;;5030482;28;20076;-66
2022/10/06 09:37:08;;;;;;;7.25;1.55;;;28.90;99.90;;;;;;5031649;28;20079;-66
2022/10/06 09:39:35;;;;;;;7.03;1.23;;;30.10;99.90;;;;;;5031876;28;20049;-66
2022/10/06 09:42:27;;;;;;;5.65;1.00;;;30.80;99.90;;;;;;5033015;28;20384;-67
2022/10/06 09:45:06;;;;;;;6.00;0.70;;;31.10;99.90;;;;;;5008510;28;20061;-66
2022/10/06 09:47:35;;;;;;;8.73;2.15;;;31.80;98.60;;;;;;5031907;28;20057;-65
2022/10/06 09:50:13;;;;;;;8.15;1.00;;;32.20;98.20;;;;;;5031233;28;20029;-66
2022/10/06 09:52:40;;;;;;;11.77;1.40;;;32.30;96.50;;;;;;5031523;28;20045;-65
2022/10/06 09:55:11;;;;;;;7.28;0.88;;;31.90;96.50;;;;;;5032797;28;20049;-65
2022/10/06 09:57:38;;;;;;;7.45;1.05;;;33.10;96.20;;;;;;5032164;28;20064;-66
2022/10/06 10:00:25;;;;;;;8.75;1.00;;;31.50;96.40;;;;;;5032733;28;20369;-65
2022/10/06 10:02:57;;;;;;;9.65;0.95;;;30.70;95.50;;;;;;5032475;28;20046;-66
2022/10/06 10:05:23;;;;;;;7.15;0.75;;;30.20;96.40;;;;;;5032560;28;20045;-65
2022/10/06 10:08:17;;;;;;;7.53;1.00;;;29.50;97.00;;;;;;5032640;28;20117;-66
2022/10/06 10:10:42;;;;;;;10.77;0.95;;;26.60;97.20;;;;;;5032685;28;20052;-66
2022/10/06 10:13:20;;;;;;;6.00;0.90;;;26.70;98.40;;;;;;5032340;28;20034;-65
2022/10/06 10:15:52;;;;;;;7.57;1.20;;;26.80;98.30;;;;;;5032293;28;20053;-65
2022/10/06 10:18:25;;;;;;;5.93;0.80;;;25.10;98.40;;;;;;5030561;28;20538;-66
2022/10/06 10:21:03;;;;;;;6.07;0.60;;;24.10;98.80;;;;;;5031111;28;20488;-65
2022/10/06 10:23:32;;;;;;;5.65;0.60;;;22.90;99.70;;;;;;5031003;28;20041;-65
2022/10/06 10:26:11;;;;;;;6.80;0.75;;;21.70;99.90;;;;;;5032320;28;20053;-64
2022/10/06 10:29:06;;;;;;;9.02;1.00;;;21.00;99.90;;;;;;5031135;28;20451;-65
2022/10/06 10:31:41;;;;;;;10.32;1.10;;;20.60;99.90;;;;;;5032546;28;20041;-66
2022/10/06 10:34:09;;;;;;;;;;;20.00;99.90;;;;;;5030978;28;20087;-64
2022/10/06 10:36:43;;;;;;;8.93;1.75;;;19.60;99.90;;;;;;5030808;28;19946;-65
2022/10/06 10:39:16;;;;;;;7.60;1.40;;;19.60;99.90;;;;;;5032279;28;20033;-67
2022/10/06 10:41:48;;;;;;;7.10;0.80;;;19.90;99.90;;;;;;5031931;28;20045;-65
2022/10/06 10:44:46;;;;;;;9.38;1.23;;;19.20;99.90;;;;;;5029101;28;20042;-64
2022/10/06 10:47:40;;;;;;;7.78;1.10;;;19.30;99.90;;;;;;5031451;28;20053;-65
2022/10/06 10:50:27;;;;;;;6.07;0.95;;;19.00;99.90;;;;;;5019077;28;20040;-65
2022/10/06 10:53:00;;;;;;;6.32;1.20;;;19.00;99.90;;;;;;5014319;28;20112;-66
2022/10/06 10:55:29;;;;;;;9.48;0.75;;;18.80;99.90;;;;;;5031888;28;20045;-66
2022/10/06 10:57:59;;;;;;;6.03;0.80;;;18.60;99.90;;;;;;5030665;28;20064;-65
2022/10/06 11:00:27;;;;;;;5.10;0.70;;;18.70;99.90;;;;;;5030888;28;20530;-64
2022/10/06 11:02:57;;;;;;;6.10;0.77;;;18.60;99.90;;;;;;5030595;28;20526;-65
2022/10/06 11:05:38;;;;;;;4.13;0.85;;;18.00;99.90;;;;;;5030606;28;20038;-64
2022/10/06 11:08:13;;;;;;;11.43;0.88;;;18.00;99.90;;;;;;5030497;28;20058;-65
2022/10/06 11:10:49;;;;;;;6.05;0.73;;;18.20;99.90;;;;;;5032887;28;20053;-66
2022/10/06 11:13:34;;;;;;;8.50;0.90;;;18.10;99.90;;;;;;5034310;28;20095;-65
2022/10/06 11:16:15;;;;;;;6.65;1.42;;;17.80;99.90;;;;;;5035397;28;20061;-65
2022/10/06 11:18:59;;;;;;;7.35;1.70;;;17.70;99.90;;;;;;5020826;28;20046;-64
2022/10/06 11:21:38;;;;;;;7.60;1.13;;;17.40;99.90;;;;;;5034614;28;20053;-64
2022/10/06 11:24:26;;;;;;;4.78;0.90;;;17.40;99.90;;;;;;5022620;28;20487;-65
2022/10/06 11:27:08;;;;;;;5.90;0.85;;;17.40;99.90;;;;;;5030415;28;20045;-67
2022/10/06 11:30:03;;;;;;;5.05;0.70;;;17.30;99.90;;;;;;5035199;28;20041;-66
2022/10/06 11:32:46;;;;;;;6.22;0.65;;;17.40;99.90;;;;;;5012755;28;20049;-66
2022/10/06 11:35:25;;;;;;;8.70;0.80;;;17.20;99.90;;;;;;5035343;28;20164;-66
2022/10/06 11:38:24;;;;;;;4.63;0.90;;;17.20;99.90;;;;;;5034171;28;20492;-66
2022/10/06 11:41:08;;;;;;;6.82;1.45;;;17.20;99.90;;;;;;5035073;28;20033;-66
2022/10/06 11:43:45;;;;;;;7.95;1.67;;;17.30;99.90;;;;;;5035119;28;20044;-66
2022/10/06 11:46:29;;;;;;;6.72;1.00;;;17.20;99.90;;;;;;5033502;28;20052;-67
2022/10/06 11:49:29;;;;;;;7.57;0.90;;;17.10;99.90;;;;;;5034341;28;20511;-66
2022/10/06 11:52:10;;;;;;;11.13;2.30;;;17.30;99.90;;;;;;5025403;28;20049;-67
2022/10/06 11:54:38;;;;;;;5.90;0.70;;;17.10;99.90;;;;;;5033388;28;20120;-66
2022/10/06 11:57:22;;;;;;;6.38;1.50;;;17.20;99.90;;;;;;5033780;28;20083;-66
2022/10/06 11:59:49;;;;;;;7.20;0.90;;;17.20;99.90;;;;;;5031452;28;20057;-66
2022/10/06 12:02:33;;;;;;;5.60;0.70;;;17.40;99.90;;;;;;5024538;28;20045;-66
2022/10/06 12:05:08;;;;;;;6.18;0.88;;;17.30;99.90;;;;;;5027767;28;20045;-65
2022/10/06 12:07:55;;;;;;;5.78;1.00;;;17.30;99.90;;;;;;5033015;28;20565;-66
2022/10/06 12:10:27;;;;;;;6.75;1.42;;;17.10;99.90;;;;;;5031756;28;20381;-67
2022/10/06 12:13:23;;;;;;;5.70;0.88;;;17.10;99.90;;;;;;5032400;28;20124;-67
2022/10/06 12:16:23;;;;;;;5.07;0.77;;;17.20;99.90;;;;;;5030731;28;20515;-69
2022/10/06 12:19:18;;;;;;;7.88;1.40;;;16.90;99.90;;;;;;5002551;28;20042;-67
2022/10/06 12:21:57;;;;;;;6.03;0.77;;;17.10;99.90;;;;;;5029777;28;20060;-68
2022/10/06 12:24:28;;;;;;;4.45;0.85;;;17.30;99.90;;;;;;5019285;28;20844;-65
2022/10/06 12:27:25;;;;;;;7.93;1.35;;;17.10;99.90;;;;;;5026079;28;20041;-66
2022/10/06 12:29:56;;;;;;;7.97;1.27;;;17.10;99.90;;;;;;5027353;28;20431;-68
2022/10/06 12:32:37;;;;;;;8.32;1.40;;;16.90;99.90;;;;;;5022117;28;20048;-66
2022/10/06 12:35:24;;;;;;;12.48;1.25;;;16.90;99.90;;;;;;5032528;28;20088;-65
2022/10/06 12:37:51;;;;;;;8.27;1.17;;;16.70;99.90;;;;;;5031573;28;20044;-66
2022/10/06 12:40:48;;;;;;;4.63;0.82;;;16.90;99.90;;;;;;5034347;28;20483;-66
2022/10/06 12:43:13;;;;;;;5.47;1.00;;;16.80;99.90;;;;;;5020921;28;20041;-66
2022/10/06 12:45:43;;;;;;;4.93;0.82;;;16.90;99.90;;;;;;5014242;28;20562;-65
2022/10/06 12:48:32;;;;;;;5.68;1.15;;;17.00;99.90;;;;;;5034521;28;20112;-66
2022/10/06 12:51:25;;;;;;;9.93;1.33;;;16.80;99.90;;;;;;5029450;28;20475;-66
2022/10/06 12:54:07;;;;;;;4.78;0.90;;;16.80;99.90;;;;;;5031338;28;20041;-66
2022/10/06 12:56:36;;;;;;;10.90;2.03;;;16.80;99.90;;;;;;5033268;28;20211;-66
2022/10/06 12:59:24;;;;;;;7.43;1.27;;;16.70;99.90;;;;;;5031704;28;20045;-65
2022/10/06 13:01:53;;;;;;;6.07;1.17;;;16.70;99.90;;;;;;5022741;28;20098;-65
2022/10/06 13:04:41;;;;;;;6.93;0.90;;;16.90;99.90;;;;;;5029740;28;20172;-65
2022/10/06 13:07:10;;;;;;;12.48;1.48;;;16.90;99.90;;;;;;5022620;28;20047;-65
2022/10/06 13:09:36;;;;;;;8.38;1.02;;;16.80;99.90;;;;;;5033469;28;20426;-66
2022/10/06 13:12:25;;;;;;;7.07;1.20;;;16.70;99.90;;;;;;5032484;28;20033;-66
2022/10/06 13:15:11;;;;;;;5.60;1.30;;;16.70;99.90;;;;;;5033508;28;20103;-66
2022/10/06 13:17:49;;;;;;;7.20;1.55;;;16.70;99.90;;;;;;5023340;28;20100;-65
2022/10/06 13:20:19;;;;;;;7.20;1.17;;;16.60;99.90;;;;;;5033697;28;20099;-66